Mason Township, Maine
Current Conditions -  °F | °C
As of 4:52 PM on Thursday 18 Dec 2014 (Local Time) from KBML Reporting Station
Overcast Overcast  
Wind Chill: -6°   Ceiling: 1700
Heat Index: -2°   Visibility: 10mi
Dew Point: -5°   Wind: 7mph
Humidity: 78%   Direction: NA
Pressure: 29.76"   Gusts: NA
Location:  44.3718°N, 70.8421°W
Report Text: KBML 182152Z AUTO VRB06KT 10SM OVC017 M02/M05 A2976 RMK AO2 SLP090 T10171050
Loading
Personal Weather Stations






























Interactive Weather Map New forecast layout! Learn more

10-Day Weather Forecast

Advertisements
Track Severe Weather on mobile